Time;durP1;ratioP1;P1;durP2;ratioP2;P2;SDS_P1;SDS_P2;PMS_P1;PMS_P2;Temp;Humidity;BMP_temperature;BMP_pressure;BME280_temperature;BME280_humidity;BME280_pressure;Samples;Min_cycle;Max_cycle;Signal;HPM_P1;HPM_P2
2023/07/24 00:00:21;;;;;;;15.48;6.35;;;;;20.60;95853.00;;;;8158837;29;20299;-67
2023/07/24 00:04:26;;;;;;;11.05;6.38;;;;;20.60;95840.00;;;;8155570;29;20333;-67
2023/07/24 00:08:33;;;;;;;11.65;6.55;;;;;20.40;95819.00;;;;8156544;29;20737;-67
2023/07/24 00:12:39;;;;;;;15.93;6.65;;;;;20.30;95816.00;;;;8158711;29;20289;-67
2023/07/24 00:16:44;;;;;;;13.13;7.22;;;;;20.20;95814.00;;;;8158163;29;20208;-67
2023/07/24 00:20:50;;;;;;;11.85;6.15;;;;;20.10;95807.00;;;;8158335;29;20209;-67
2023/07/24 00:24:53;;;;;;;13.95;6.20;;;;;19.90;95792.00;;;;8148845;29;20698;-67
2023/07/24 00:29:01;;;;;;;13.77;6.68;;;;;19.80;95789.00;;;;8154415;29;20244;-67
2023/07/24 00:33:07;;;;;;;12.77;6.72;;;;;19.70;95793.00;;;;8157114;29;20655;-67
2023/07/24 00:37:14;;;;;;;10.40;6.15;;;;;19.70;95804.00;;;;8156731;29;20229;-67
2023/07/24 00:41:17;;;;;;;13.10;7.13;;;;;19.70;95809.00;;;;8156904;29;20526;-67
2023/07/24 00:45:24;;;;;;;12.55;6.85;;;;;19.70;95811.00;;;;8139546;29;20251;-67
2023/07/24 00:49:27;;;;;;;13.77;6.72;;;;;19.70;95808.00;;;;8159551;29;20854;-67
2023/07/24 00:53:32;;;;;;;17.98;7.07;;;;;19.80;95804.00;;;;8153341;29;20213;-67
2023/07/24 00:57:36;;;;;;;10.95;6.75;;;;;19.70;95818.00;;;;8138833;29;20209;-67
2023/07/24 01:01:42;;;;;;;15.13;7.38;;;;;19.60;95838.00;;;;8157104;29;20219;-67
2023/07/24 01:05:45;;;;;;;12.93;7.20;;;;;19.60;95864.00;;;;8155420;29;20239;-67
2023/07/24 01:09:50;;;;;;;14.48;6.80;;;;;20.00;95869.00;;;;8155266;29;20323;-67
2023/07/24 01:14:03;;;;;;;13.50;6.85;;;;;20.40;95846.00;;;;8155800;29;20240;-67
2023/07/24 01:18:10;;;;;;;13.45;6.90;;;;;20.80;95843.00;;;;8152693;29;20217;-67
2023/07/24 01:22:21;;;;;;;14.80;6.43;;;;;21.10;95859.00;;;;8155756;29;20644;-66
2023/07/24 01:26:26;;;;;;;12.80;7.03;;;;;21.40;95866.00;;;;8155373;29;20229;-67
2023/07/24 01:30:36;;;;;;;15.43;6.47;;;;;21.60;95867.00;;;;8139893;29;20300;-67
2023/07/24 01:34:40;;;;;;;12.30;6.95;;;;;21.70;95836.00;;;;8154176;29;20212;-67
2023/07/24 01:38:51;;;;;;;10.63;6.18;;;;;21.70;95842.00;;;;8155787;29;20220;-67
2023/07/24 01:42:56;;;;;;;13.38;7.32;;;;;21.60;95835.00;;;;8156219;29;20869;-67
2023/07/24 01:47:01;;;;;;;13.35;6.47;;;;;21.50;95807.00;;;;8154160;29;20208;-67
2023/07/24 01:51:05;;;;;;;11.15;6.75;;;;;21.50;95793.00;;;;8155343;29;20777;-67
2023/07/24 01:55:10;;;;;;;12.00;7.00;;;;;21.40;95776.00;;;;8155195;29;20209;-67
2023/07/24 01:59:17;;;;;;;11.85;6.28;;;;;21.40;95812.00;;;;8153454;29;20296;-67
2023/07/24 02:03:20;;;;;;;8.98;5.97;;;;;21.40;95834.00;;;;8152843;29;20278;-66
2023/07/24 02:07:23;;;;;;;9.68;5.70;;;;;21.50;95852.00;;;;8155156;29;20240;-67
2023/07/24 02:11:30;;;;;;;10.45;6.13;;;;;21.50;95819.00;;;;8154212;29;20627;-67
2023/07/24 02:15:35;;;;;;;11.43;5.97;;;;;21.40;95777.00;;;;8155882;29;20300;-66
2023/07/24 02:19:38;;;;;;;11.05;6.57;;;;;21.20;95785.00;;;;8154592;29;20292;-67
2023/07/24 02:23:41;;;;;;;12.48;6.97;;;;;21.00;95780.00;;;;8149256;29;20212;-67
2023/07/24 02:27:50;;;;;;;12.80;6.72;;;;;20.70;95784.00;;;;8140869;29;20208;-67
2023/07/24 02:31:59;;;;;;;13.75;6.38;;;;;20.40;95786.00;;;;8159933;29;20240;-67
2023/07/24 02:36:07;;;;;;;12.05;6.55;;;;;20.20;95782.00;;;;8161268;29;20239;-67
2023/07/24 02:40:11;;;;;;;13.02;6.88;;;;;20.00;95776.00;;;;8160864;29;20912;-67
2023/07/24 02:44:16;;;;;;;12.35;6.50;;;;;19.80;95760.00;;;;8160919;29;20227;-67
2023/07/24 02:48:20;;;;;;;10.05;5.57;;;;;19.60;95741.00;;;;8161470;29;20264;-67
2023/07/24 02:52:25;;;;;;;13.80;7.07;;;;;19.40;95735.00;;;;8159516;29;20243;-67
2023/07/24 02:56:31;;;;;;;13.98;6.78;;;;;19.20;95735.00;;;;8161116;29;20201;-66
2023/07/24 03:00:34;;;;;;;11.63;6.13;;;;;18.90;95718.00;;;;8155327;29;20217;-67
2023/07/24 03:05:11;;;;;;;12.50;7.13;;;;;18.70;95719.00;;;;8299190;23;20235;-96
2023/07/24 03:13:53;;;;;;;13.18;6.80;;;;;18.60;95720.00;;;;8292834;28;20293;-96
2023/07/24 03:37:20;;;;;;;14.40;7.63;;;;;18.40;95743.00;;;;8290885;23;20761;-69
2023/07/24 03:41:28;;;;;;;12.10;6.85;;;;;18.40;95750.00;;;;8252872;28;20206;-69
2023/07/24 03:45:32;;;;;;;11.98;6.80;;;;;18.40;95770.00;;;;8255946;28;20234;-69
2023/07/24 03:49:35;;;;;;;12.73;6.75;;;;;18.50;95772.00;;;;8255920;28;20274;-69
2023/07/24 03:53:46;;;;;;;11.57;6.68;;;;;18.70;95787.00;;;;8255102;28;20202;-68
2023/07/24 03:57:52;;;;;;;20.05;6.85;;;;;18.70;95809.00;;;;8251043;28;20206;-69
2023/07/24 04:01:55;;;;;;;11.63;6.30;;;;;18.70;95803.00;;;;8253168;28;20301;-68
2023/07/24 04:05:58;;;;;;;11.68;6.65;;;;;18.80;95780.00;;;;8253302;28;20291;-68
2023/07/24 04:10:03;;;;;;;13.80;7.40;;;;;18.80;95736.00;;;;8242329;28;20323;-68
2023/07/24 04:14:15;;;;;;;14.50;6.82;;;;;18.90;95611.00;;;;8218647;28;20207;-69
2023/07/24 04:18:19;;;;;;;15.57;7.18;;;;;19.00;95596.00;;;;8233644;28;20204;-69
2023/07/24 04:22:28;;;;;;;12.68;6.93;;;;;19.10;95611.00;;;;8222311;28;20273;-69
2023/07/24 04:26:31;;;;;;;13.55;7.20;;;;;19.30;95655.00;;;;8215431;28;20642;-68
2023/07/24 04:30:38;;;;;;;14.57;6.85;;;;;19.60;95662.00;;;;8242661;28;20234;-68
2023/07/24 04:34:47;;;;;;;14.13;7.22;;;;;19.80;95669.00;;;;8228705;28;20290;-68
2023/07/24 04:38:55;;;;;;;17.02;7.70;;;;;20.00;95661.00;;;;8224541;28;20207;-69
2023/07/24 04:43:00;;;;;;;12.05;7.00;;;;;20.20;95645.00;;;;8226615;28;20222;-69
2023/07/24 04:47:06;;;;;;;12.52;7.25;;;;;20.30;95657.00;;;;8238624;28;20298;-69
2023/07/24 04:51:10;;;;;;;14.80;7.10;;;;;20.40;95655.00;;;;8233221;28;20222;-68
2023/07/24 04:55:13;;;;;;;12.43;7.25;;;;;20.50;95648.00;;;;8235927;28;20202;-68
2023/07/24 04:59:18;;;;;;;11.70;6.78;;;;;20.70;95666.00;;;;8237161;28;20298;-68
2023/07/24 05:03:24;;;;;;;13.40;6.97;;;;;20.70;95668.00;;;;8235749;28;20774;-69
2023/07/24 05:07:28;;;;;;;13.52;6.97;;;;;20.70;95658.00;;;;8212556;28;20297;-69
2023/07/24 05:11:32;;;;;;;14.40;7.45;;;;;20.80;95646.00;;;;8217298;28;20322;-68
2023/07/24 05:15:39;;;;;;;12.50;7.00;;;;;20.80;95654.00;;;;8232316;28;20225;-69
2023/07/24 05:19:46;;;;;;;13.05;7.00;;;;;20.90;95646.00;;;;8232701;28;20222;-68
2023/07/24 05:23:52;;;;;;;11.30;6.80;;;;;20.80;95651.00;;;;8243531;28;20249;-70
2023/07/24 05:27:55;;;;;;;12.98;6.70;;;;;20.70;95650.00;;;;8242305;28;20247;-69
2023/07/24 05:31:58;;;;;;;13.77;7.32;;;;;20.90;95626.00;;;;8242233;28;20917;-69
2023/07/24 05:36:10;;;;;;;13.15;6.60;;;;;21.20;95635.00;;;;8239865;28;20298;-68
2023/07/24 05:40:13;;;;;;;14.48;7.50;;;;;21.70;95606.00;;;;8218082;28;20611;-68
2023/07/24 05:44:20;;;;;;;13.32;7.28;;;;;22.10;95613.00;;;;8242095;28;20599;-69
2023/07/24 05:48:25;;;;;;;14.30;7.28;;;;;22.70;95610.00;;;;8237289;28;20210;-70
2023/07/24 05:52:30;;;;;;;14.43;6.72;;;;;23.00;95619.00;;;;8240324;28;20705;-70
2023/07/24 05:56:33;;;;;;;16.45;7.25;;;;;23.20;95619.00;;;;8216720;28;20382;-70
2023/07/24 06:00:37;;;;;;;13.88;7.45;;;;;23.60;95610.00;;;;8237925;28;20297;-70
2023/07/24 06:04:40;;;;;;;17.85;7.75;;;;;24.00;95608.00;;;;8220570;28;20763;-70
2023/07/24 06:08:52;;;;;;;11.00;7.28;;;;;24.10;95618.00;;;;8248130;28;20230;-69
2023/07/24 06:12:58;;;;;;;16.20;7.45;;;;;24.20;95613.00;;;;8245631;28;20314;-69
2023/07/24 06:17:01;;;;;;;13.90;7.65;;;;;24.30;95605.00;;;;8252930;28;20203;-69
2023/07/24 06:21:05;;;;;;;15.40;7.90;;;;;24.50;95611.00;;;;8246912;28;20205;-70
2023/07/24 06:25:11;;;;;;;13.27;7.70;;;;;24.50;95608.00;;;;8247660;28;20237;-69
2023/07/24 06:29:15;;;;;;;14.95;7.18;;;;;24.80;95600.00;;;;8247890;28;20237;-70
2023/07/24 06:33:18;;;;;;;12.02;7.38;;;;;25.10;95598.00;;;;8249866;28;20318;-70
2023/07/24 06:37:21;;;;;;;13.57;7.75;;;;;25.60;95599.00;;;;8247166;28;20705;-70
2023/07/24 06:41:26;;;;;;;11.00;6.85;;;;;26.10;95598.00;;;;8242044;28;20222;-70
2023/07/24 06:45:29;;;;;;;13.77;7.53;;;;;26.30;95597.00;;;;8218349;28;20206;-69
2023/07/24 06:49:33;;;;;;;12.43;7.53;;;;;26.60;95607.00;;;;8215442;28;20209;-71
2023/07/24 06:53:36;;;;;;;11.43;7.28;;;;;27.10;95604.00;;;;8246918;28;20245;-71
2023/07/24 06:57:41;;;;;;;13.18;7.75;;;;;27.50;95579.00;;;;8244661;28;20313;-70
2023/07/24 07:01:44;;;;;;;12.75;7.47;;;;;27.60;95589.00;;;;8243926;28;20688;-71
2023/07/24 07:05:48;;;;;;;12.27;7.63;;;;;28.00;95591.00;;;;8186600;28;20316;-70
2023/07/24 07:09:58;;;;;;;11.25;7.50;;;;;28.50;95589.00;;;;8234667;28;20667;-70
2023/07/24 07:14:03;;;;;;;14.40;7.78;;;;;29.20;95598.00;;;;8231958;28;20245;-71
2023/07/24 07:18:09;;;;;;;14.18;7.75;;;;;30.00;95599.00;;;;8200199;28;20237;-70
2023/07/24 07:22:14;;;;;;;11.60;7.43;;;;;30.20;95608.00;;;;8197827;28;20298;-70
2023/07/24 07:26:19;;;;;;;10.48;6.95;;;;;29.50;95612.00;;;;8232500;28;20230;-70
2023/07/24 07:30:29;;;;;;;13.50;8.05;;;;;28.90;95613.00;;;;8228691;28;20234;-70
2023/07/24 07:34:34;;;;;;;16.75;7.65;;;;;28.60;95627.00;;;;8231994;28;20333;-70
2023/07/24 07:38:40;;;;;;;11.20;7.32;;;;;28.50;95629.00;;;;8235614;28;20217;-71
2023/07/24 07:42:44;;;;;;;12.80;7.55;;;;;28.40;95640.00;;;;8231088;28;20241;-70
2023/07/24 07:46:49;;;;;;;13.75;7.57;;;;;27.90;95674.00;;;;8231114;28;20292;-71
2023/07/24 07:50:54;;;;;;;14.63;7.28;;;;;27.10;95694.00;;;;8225415;28;20235;-71
2023/07/24 07:55:00;;;;;;;13.13;6.88;;;;;26.30;95705.00;;;;8226366;28;20207;-71
2023/07/24 07:59:06;;;;;;;15.80;7.13;;;;;25.70;95711.00;;;;8233577;28;20843;-72
2023/07/24 08:03:10;;;;;;;13.18;7.30;;;;;25.20;95700.00;;;;8239448;28;20309;-72
2023/07/24 08:07:13;;;;;;;12.85;8.07;;;;;24.70;95707.00;;;;8246735;28;20250;-71
2023/07/24 08:11:17;;;;;;;19.30;9.63;;;;;24.10;95700.00;;;;8239841;28;20338;-71
2023/07/24 08:15:20;;;;;;;15.88;8.25;;;;;23.70;95701.00;;;;8240774;28;20213;-72
2023/07/24 08:19:24;;;;;;;18.55;8.30;;;;;23.50;95710.00;;;;8237949;28;20234;-71
2023/07/24 08:23:27;;;;;;;13.68;7.75;;;;;23.30;95710.00;;;;8239246;28;20210;-72
2023/07/24 08:27:31;;;;;;;16.73;8.85;;;;;23.10;95711.00;;;;8239303;28;20229;-72
2023/07/24 08:31:41;;;;;;;14.75;7.88;;;;;23.00;95723.00;;;;8237817;28;20238;-72
2023/07/24 08:35:49;;;;;;;16.35;8.98;;;;;22.80;95723.00;;;;8240894;28;20210;-72
2023/07/24 08:39:56;;;;;;;18.08;7.47;;;;;22.50;95717.00;;;;8237840;28;20207;-72
2023/07/24 08:44:02;;;;;;;13.98;8.32;;;;;22.40;95716.00;;;;8237658;28;20575;-72
2023/07/24 08:48:12;;;;;;;15.52;8.15;;;;;22.40;95717.00;;;;8239617;28;20222;-72
2023/07/24 08:52:17;;;;;;;14.27;7.65;;;;;22.70;95708.00;;;;8235427;28;20761;-72
2023/07/24 08:56:40;;;;;;;16.02;7.18;;;;;23.00;95689.00;;;;8237760;28;20309;-73
2023/07/24 09:00:51;;;;;;;17.52;7.20;;;;;23.20;95691.00;;;;8233822;28;20721;-73
2023/07/24 09:04:56;;;;;;;18.42;8.25;;;;;23.50;95678.00;;;;8233543;28;20285;-74
2023/07/24 09:09:00;;;;;;;14.13;7.43;;;;;23.70;95670.00;;;;8230071;28;20235;-72
2023/07/24 09:13:06;;;;;;;13.20;7.70;;;;;23.60;95661.00;;;;8235237;28;20272;-73
2023/07/24 09:17:11;;;;;;;13.07;7.90;;;;;23.40;95654.00;;;;8237100;28;20306;-74
2023/07/24 09:21:14;;;;;;;12.98;7.43;;;;;23.40;95650.00;;;;8230043;28;20310;-73
2023/07/24 09:25:21;;;;;;;14.93;7.57;;;;;23.60;95639.00;;;;8238108;28;20294;-73
2023/07/24 09:29:32;;;;;;;14.85;7.35;;;;;23.70;95643.00;;;;8234360;28;20207;-72
2023/07/24 09:33:41;;;;;;;12.05;6.70;;;;;23.90;95630.00;;;;8235801;28;20239;-73
2023/07/24 09:37:49;;;;;;;10.88;6.55;;;;;24.40;95624.00;;;;8221304;28;20675;-73
2023/07/24 09:41:54;;;;;;;12.88;6.90;;;;;25.30;95616.00;;;;8236060;28;20314;-73
2023/07/24 09:46:02;;;;;;;12.60;6.32;;;;;26.40;95604.00;;;;8230186;28;20294;-73
2023/07/24 09:50:06;;;;;;;14.45;7.43;;;;;27.40;95598.00;;;;8238184;28;20203;-73
2023/07/24 09:54:16;;;;;;;12.13;6.65;;;;;28.30;95581.00;;;;8233854;28;20231;-72
2023/07/24 09:58:26;;;;;;;9.82;6.32;;;;;28.80;95574.00;;;;8231934;28;20239;-73
2023/07/24 10:02:33;;;;;;;8.48;5.53;;;;;29.80;95580.00;;;;8245013;28;20261;-73
2023/07/24 10:06:37;;;;;;;9.05;5.82;;;;;30.90;95580.00;;;;8234009;28;20207;-73
2023/07/24 10:10:40;;;;;;;7.22;5.25;;;;;31.50;95585.00;;;;8239672;28;20206;-74
2023/07/24 10:14:48;;;;;;;8.48;5.30;;;;;32.60;95577.00;;;;8226355;28;20210;-75
2023/07/24 10:18:51;;;;;;;8.32;5.47;;;;;31.90;95557.00;;;;8230126;28;20209;-73
2023/07/24 10:22:55;;;;;;;9.88;5.43;;;;;31.50;95543.00;;;;8224404;28;20203;-71
2023/07/24 10:26:58;;;;;;;8.20;5.60;;;;;31.90;95550.00;;;;8238367;28;20293;-71
2023/07/24 10:31:08;;;;;;;6.85;4.78;;;;;32.50;95544.00;;;;8231045;28;20208;-70
2023/07/24 10:35:12;;;;;;;6.32;4.75;;;;;33.00;95551.00;;;;8232010;28;20217;-71
2023/07/24 10:39:18;;;;;;;6.30;4.78;;;;;33.90;95544.00;;;;8228813;28;20215;-70
2023/07/24 10:43:24;;;;;;;11.23;5.53;;;;;34.30;95553.00;;;;8229180;28;20195;-70
2023/07/24 10:47:43;;;;;;;7.53;4.90;;;;;34.60;95554.00;;;;8233681;28;20213;-71
2023/07/24 10:51:46;;;;;;;8.20;4.68;;;;;34.50;95554.00;;;;8238985;28;20230;-74
2023/07/24 10:55:51;;;;;;;8.90;5.43;;;;;35.30;95547.00;;;;8224169;28;20579;-72
2023/07/24 10:59:55;;;;;;;9.27;5.18;;;;;35.00;95555.00;;;;8244772;28;20266;-71
2023/07/24 11:04:00;;;;;;;8.15;5.75;;;;;33.90;95563.00;;;;8242748;28;20318;-75
2023/07/24 11:08:13;;;;;;;9.00;5.38;;;;;32.90;95548.00;;;;8222769;28;20206;-74
2023/07/24 11:12:17;;;;;;;9.90;6.10;;;;;32.00;95556.00;;;;8243933;28;20239;-72
2023/07/24 11:16:21;;;;;;;10.73;5.72;;;;;31.20;95550.00;;;;8239707;28;20298;-72
2023/07/24 11:20:27;;;;;;;7.70;5.55;;;;;30.80;95544.00;;;;8242840;28;20273;-72
2023/07/24 11:24:32;;;;;;;10.68;5.90;;;;;30.20;95535.00;;;;8243113;28;20325;-72
2023/07/24 11:28:40;;;;;;;8.80;5.72;;;;;29.70;95533.00;;;;8236197;28;20661;-72
2023/07/24 11:32:44;;;;;;;8.85;5.28;;;;;29.30;95548.00;;;;8240450;28;20238;-72
2023/07/24 11:36:50;;;;;;;8.43;5.30;;;;;29.00;95555.00;;;;8242205;28;20218;-73
2023/07/24 11:40:58;;;;;;;9.10;4.97;;;;;28.60;95547.00;;;;8241368;28;20286;-72
2023/07/24 11:45:02;;;;;;;13.15;5.00;;;;;28.40;95545.00;;;;8243205;28;20214;-72
2023/07/24 11:49:06;;;;;;;7.60;5.57;;;;;28.10;95555.00;;;;8236111;28;20239;-71
2023/07/24 11:53:23;;;;;;;9.35;5.57;;;;;27.90;95561.00;;;;8242170;28;20316;-72
2023/07/24 11:57:28;;;;;;;6.20;4.88;;;;;27.70;95565.00;;;;8233432;28;20290;-75
2023/07/24 12:01:33;;;;;;;13.40;5.72;;;;;27.80;95583.00;;;;8239439;28;20202;-73
2023/07/24 12:05:44;;;;;;;8.23;5.35;;;;;27.60;95584.00;;;;8236034;28;20231;-71
2023/07/24 12:09:54;;;;;;;8.10;5.82;;;;;27.30;95583.00;;;;8230237;28;20629;-72
2023/07/24 12:13:57;;;;;;;15.00;5.93;;;;;26.80;95612.00;;;;8228864;28;21189;-71
2023/07/24 12:18:02;;;;;;;24.77;8.38;;;;;25.00;95604.00;;;;8233994;28;20218;-68
2023/07/24 12:22:07;;;;;;;14.30;9.30;;;;;23.50;95568.00;;;;8235974;28;20211;-68
2023/07/24 12:26:14;;;;;;;19.77;8.70;;;;;22.60;95570.00;;;;8229359;28;20199;-67
2023/07/24 12:30:21;;;;;;;16.70;9.45;;;;;22.10;95561.00;;;;8236610;28;20664;-68
2023/07/24 12:34:26;;;;;;;17.70;9.00;;;;;21.60;95583.00;;;;8238805;28;20215;-66
2023/07/24 12:38:30;;;;;;;15.95;9.40;;;;;21.50;95608.00;;;;8238233;28;20213;-67
2023/07/24 12:42:35;;;;;;;22.05;10.25;;;;;21.40;95642.00;;;;8234121;28;20322;-68
2023/07/24 12:46:39;;;;;;;15.10;8.38;;;;;21.20;95662.00;;;;8229906;28;20239;-69
2023/07/24 12:50:42;;;;;;;12.95;7.43;;;;;20.80;95668.00;;;;8233586;28;20729;-71
2023/07/24 12:54:45;;;;;;;10.07;6.22;;;;;20.60;95663.00;;;;8232649;28;20234;-69
2023/07/24 12:59:07;;;;;;;13.18;7.40;;;;;20.30;95655.00;;;;8228551;28;20234;-70
2023/07/24 13:03:10;;;;;;;10.50;5.88;;;;;20.10;95650.00;;;;8240478;28;21054;-69
2023/07/24 13:07:15;;;;;;;10.85;6.22;;;;;19.90;95640.00;;;;8241350;28;20203;-69
2023/07/24 13:11:19;;;;;;;12.63;6.43;;;;;19.70;95621.00;;;;8239025;28;20234;-70
2023/07/24 13:15:32;;;;;;;12.38;6.43;;;;;19.70;95624.00;;;;8241724;28;20812;-71
2023/07/24 13:19:35;;;;;;;11.60;6.43;;;;;19.70;95603.00;;;;8238639;28;20242;-73
2023/07/24 13:23:41;;;;;;;11.60;5.82;;;;;19.70;95570.00;;;;8227558;28;20353;-72
2023/07/24 13:27:45;;;;;;;8.60;5.68;;;;;19.80;95534.00;;;;8237981;28;20202;-74
2023/07/24 13:31:53;;;;;;;9.52;6.03;;;;;20.20;95515.00;;;;8239346;28;20285;-71
2023/07/24 13:35:56;;;;;;;11.45;6.10;;;;;20.90;95502.00;;;;8239096;28;20236;-74
2023/07/24 13:39:59;;;;;;;9.88;6.35;;;;;21.40;95496.00;;;;8241748;28;20318;-74
2023/07/24 13:44:02;;;;;;;12.63;5.75;;;;;21.90;95474.00;;;;8240442;28;20700;-74
2023/07/24 13:48:15;;;;;;;8.05;5.80;;;;;22.20;95440.00;;;;8233815;28;20199;-70
2023/07/24 13:52:22;;;;;;;10.73;5.63;;;;;22.50;95434.00;;;;8237677;28;20211;-67
2023/07/24 13:56:29;;;;;;;8.57;5.80;;;;;22.80;95444.00;;;;8240849;28;20210;-67
2023/07/24 14:00:33;;;;;;;8.43;5.38;;;;;23.30;95438.00;;;;8233868;28;20294;-67
2023/07/24 14:04:37;;;;;;;9.25;5.18;;;;;23.50;95435.00;;;;8237056;28;20337;-68
2023/07/24 14:08:41;;;;;;;9.40;5.72;;;;;23.60;95438.00;;;;8244312;28;20210;-69
2023/07/24 14:12:44;;;;;;;11.23;5.75;;;;;23.70;95429.00;;;;8245432;28;20963;-69
2023/07/24 14:16:47;;;;;;;7.65;4.78;;;;;24.20;95423.00;;;;8234276;28;20214;-68
2023/07/24 14:20:56;;;;;;;7.60;5.35;;;;;24.50;95433.00;;;;8235177;28;20210;-68
2023/07/24 14:24:59;;;;;;;9.25;5.13;;;;;24.90;95440.00;;;;8243288;28;20209;-69
2023/07/24 14:29:03;;;;;;;9.48;5.18;;;;;25.00;95443.00;;;;8246117;28;20241;-69
2023/07/24 14:33:08;;;;;;;9.18;5.50;;;;;25.70;95437.00;;;;8253425;28;20252;-69
2023/07/24 14:37:13;;;;;;;9.25;5.32;;;;;25.70;95419.00;;;;8239244;28;20210;-69
2023/07/24 14:41:17;;;;;;;26.02;5.72;;;;;25.60;95417.00;;;;8243043;28;20209;-69
2023/07/24 14:45:20;;;;;;;9.00;5.18;;;;;25.60;95414.00;;;;8243813;28;20234;-69
2023/07/24 14:49:24;;;;;;;7.15;4.40;;;;;25.80;95415.00;;;;8243514;28;20217;-68
2023/07/24 14:53:31;;;;;;;6.55;4.30;;;;;26.20;95415.00;;;;8243062;28;20252;-69
2023/07/24 14:57:35;;;;;;;6.57;4.75;;;;;26.80;95416.00;;;;8244111;28;20231;-69
2023/07/24 15:01:40;;;;;;;8.80;4.47;;;;;27.20;95410.00;;;;8248620;28;20903;-71
2023/07/24 15:05:43;;;;;;;5.95;4.80;;;;;26.50;95399.00;;;;8249896;28;20284;-67
2023/07/24 15:09:47;;;;;;;6.13;4.32;;;;;26.30;95399.00;;;;8248465;28;20294;-68
2023/07/24 15:13:51;;;;;;;7.88;5.10;;;;;25.80;95396.00;;;;8253988;28;20653;-68
2023/07/24 15:17:56;;;;;;;7.57;4.63;;;;;25.80;95408.00;;;;8253523;28;20572;-68
2023/07/24 15:22:02;;;;;;;8.35;4.65;;;;;25.80;95402.00;;;;8252853;28;20210;-68
2023/07/24 15:26:09;;;;;;;9.55;5.28;;;;;25.60;95399.00;;;;8248798;28;20245;-67
2023/07/24 15:30:14;;;;;;;7.93;5.07;;;;;25.40;95406.00;;;;8244542;28;20225;-69
2023/07/24 15:34:17;;;;;;;9.43;5.43;;;;;25.10;95420.00;;;;8243023;28;20321;-68
2023/07/24 15:38:21;;;;;;;9.10;6.30;;;;;25.10;95426.00;;;;8242248;28;20662;-69
2023/07/24 15:42:30;;;;;;;9.13;6.10;;;;;24.90;95424.00;;;;8230093;28;20349;-68
2023/07/24 15:46:33;;;;;;;9.60;6.32;;;;;24.70;95434.00;;;;8244901;28;20658;-67
2023/07/24 15:50:36;;;;;;;11.32;5.88;;;;;24.40;95429.00;;;;8247184;28;20584;-67
2023/07/24 15:54:39;;;;;;;11.32;6.22;;;;;23.80;95431.00;;;;8243701;28;20234;-67
2023/07/24 15:58:48;;;;;;;11.02;6.50;;;;;23.20;95424.00;;;;8244441;28;20297;-69
2023/07/24 16:02:51;;;;;;;11.60;6.20;;;;;22.70;95414.00;;;;8248559;28;20310;-68
2023/07/24 16:06:57;;;;;;;10.93;5.63;;;;;22.40;95407.00;;;;8248074;28;20206;-68
2023/07/24 16:11:00;;;;;;;8.52;4.85;;;;;22.40;95415.00;;;;8247360;28;20297;-67
2023/07/24 16:15:05;;;;;;;7.38;4.65;;;;;22.50;95417.00;;;;8244460;28;20559;-68
2023/07/24 16:19:15;;;;;;;6.95;4.60;;;;;22.60;95424.00;;;;8243575;28;20211;-68
2023/07/24 16:23:21;;;;;;;8.75;4.88;;;;;22.60;95420.00;;;;8248320;28;20246;-69
2023/07/24 16:27:30;;;;;;;7.00;4.50;;;;;22.70;95413.00;;;;8246888;28;20310;-67
2023/07/24 16:31:36;;;;;;;9.15;5.03;;;;;22.70;95420.00;;;;8249642;28;20203;-69
2023/07/24 16:35:40;;;;;;;5.90;4.43;;;;;22.60;95405.00;;;;8227886;28;20261;-69
2023/07/24 16:39:43;;;;;;;7.22;4.28;;;;;22.60;95406.00;;;;8249117;28;20203;-68
2023/07/24 16:43:47;;;;;;;6.03;4.20;;;;;22.50;95390.00;;;;8243753;28;20219;-68
2023/07/24 16:47:52;;;;;;;6.22;4.18;;;;;22.60;95380.00;;;;8244211;28;20210;-68
2023/07/24 16:51:55;;;;;;;5.45;3.92;;;;;22.60;95396.00;;;;8248865;28;20210;-68
2023/07/24 16:55:59;;;;;;;5.25;3.90;;;;;22.60;95392.00;;;;8245108;28;20360;-68
2023/07/24 17:00:05;;;;;;;6.07;4.40;;;;;22.60;95394.00;;;;8248351;28;20963;-68
2023/07/24 17:04:10;;;;;;;6.22;3.83;;;;;22.70;95398.00;;;;8248096;28;20309;-68
2023/07/24 17:08:14;;;;;;;5.57;4.00;;;;;22.70;95400.00;;;;8241549;28;20214;-68
2023/07/24 17:12:24;;;;;;;5.82;4.13;;;;;22.80;95409.00;;;;8247528;28;20294;-68
2023/07/24 17:16:27;;;;;;;6.82;4.75;;;;;22.60;95405.00;;;;8246281;28;20940;-67
2023/07/24 17:20:34;;;;;;;6.93;4.30;;;;;22.50;95404.00;;;;8245160;28;20261;-68
2023/07/24 17:24:38;;;;;;;6.70;4.03;;;;;22.40;95383.00;;;;8247325;28;21087;-68
2023/07/24 17:28:42;;;;;;;5.85;4.20;;;;;22.50;95367.00;;;;8242975;28;20195;-68
2023/07/24 17:32:49;;;;;;;8.52;4.30;;;;;23.00;95358.00;;;;8243915;28;20246;-68
2023/07/24 17:36:57;;;;;;;4.55;3.70;;;;;23.70;95337.00;;;;8242690;28;20265;-67
2023/07/24 17:41:01;;;;;;;6.07;4.13;;;;;24.20;95338.00;;;;8235926;28;20289;-68
2023/07/24 17:45:06;;;;;;;6.20;3.97;;;;;24.10;95336.00;;;;8225440;28;20234;-67
2023/07/24 17:49:09;;;;;;;7.53;4.05;;;;;23.90;95334.00;;;;8236390;28;20294;-66
2023/07/24 17:53:13;;;;;;;4.47;3.83;;;;;23.60;95330.00;;;;8234296;28;20285;-66
2023/07/24 17:57:17;;;;;;;4.22;3.83;;;;;23.30;95318.00;;;;8234600;28;20226;-66
2023/07/24 18:01:20;;;;;;;5.22;3.50;;;;;23.60;95332.00;;;;8235278;28;20233;-69
2023/07/24 18:05:27;;;;;;;3.80;3.28;;;;;23.50;95336.00;;;;8262832;28;20282;-66
2023/07/24 18:09:32;;;;;;;6.07;3.33;;;;;23.20;95339.00;;;;8262146;28;20207;-66
2023/07/24 18:13:35;;;;;;;4.68;3.42;;;;;22.80;95327.00;;;;8263977;28;20206;-66
2023/07/24 18:17:42;;;;;;;5.57;3.63;;;;;22.60;95311.00;;;;8263633;28;20245;-65
2023/07/24 18:21:49;;;;;;;4.70;3.45;;;;;22.30;95296.00;;;;8263064;28;20234;-65
2023/07/24 18:25:54;;;;;;;4.57;3.20;;;;;22.00;95309.00;;;;8263787;28;20211;-65
2023/07/24 18:30:05;;;;;;;4.72;3.50;;;;;21.90;95322.00;;;;8263839;28;20701;-65
2023/07/24 18:34:09;;;;;;;4.68;3.35;;;;;21.70;95336.00;;;;8262810;28;20276;-66
2023/07/24 18:38:13;;;;;;;4.10;3.30;;;;;21.60;95349.00;;;;8262928;28;20294;-66
2023/07/24 18:42:17;;;;;;;3.78;3.10;;;;;21.50;95358.00;;;;8263265;28;20245;-66
2023/07/24 18:46:20;;;;;;;3.58;3.17;;;;;21.50;95360.00;;;;8262907;28;20206;-66
2023/07/24 18:50:24;;;;;;;5.05;3.60;;;;;21.40;95371.00;;;;8262376;28;20237;-66
2023/07/24 18:54:28;;;;;;;4.50;3.60;;;;;21.30;95385.00;;;;8262315;28;20337;-65
2023/07/24 18:58:36;;;;;;;5.18;3.72;;;;;21.30;95397.00;;;;8262764;28;20229;-66
2023/07/24 19:02:42;;;;;;;5.53;5.03;;;;;21.20;95395.00;;;;8258286;28;20258;-66
2023/07/24 19:06:47;;;;;;;5.07;3.75;;;;;21.10;95412.00;;;;8245314;28;20211;-67
2023/07/24 19:10:51;;;;;;;3.60;3.10;;;;;21.10;95426.00;;;;8247364;28;20956;-67
2023/07/24 19:14:55;;;;;;;4.93;3.65;;;;;21.00;95434.00;;;;8238068;28;20234;-66
2023/07/24 19:19:07;;;;;;;5.18;3.53;;;;;21.00;95445.00;;;;8239202;28;20203;-67
2023/07/24 19:23:10;;;;;;;5.82;3.80;;;;;20.90;95441.00;;;;8239836;28;20203;-67
2023/07/24 19:27:13;;;;;;;4.35;3.38;;;;;20.70;95442.00;;;;8246138;28;20230;-67
2023/07/24 19:31:19;;;;;;;4.38;3.08;;;;;20.70;95446.00;;;;8246514;28;20295;-67
2023/07/24 19:35:22;;;;;;;4.30;3.47;;;;;20.60;95463.00;;;;8247839;28;20747;-67
2023/07/24 19:39:26;;;;;;;4.43;3.20;;;;;20.60;95460.00;;;;8247903;28;20235;-67
2023/07/24 19:43:33;;;;;;;8.05;3.80;;;;;20.50;95464.00;;;;8249291;28;20294;-67
2023/07/24 19:47:41;;;;;;;4.70;3.28;;;;;20.50;95466.00;;;;8248742;28;20285;-67
2023/07/24 19:51:44;;;;;;;4.90;3.65;;;;;20.40;95475.00;;;;8251838;28;20764;-66
2023/07/24 19:55:48;;;;;;;4.63;3.72;;;;;20.30;95478.00;;;;8242282;28;20309;-67
2023/07/24 19:59:51;;;;;;;9.32;3.97;;;;;20.30;95486.00;;;;8246145;28;20199;-67
2023/07/24 20:03:55;;;;;;;5.25;3.50;;;;;20.20;95486.00;;;;8247085;28;20218;-66
2023/07/24 20:07:59;;;;;;;4.93;3.50;;;;;20.20;95492.00;;;;8242859;28;20217;-67
2023/07/24 20:12:02;;;;;;;5.10;3.55;;;;;20.20;95489.00;;;;8244489;28;20199;-67
2023/07/24 20:16:05;;;;;;;4.35;3.60;;;;;20.20;95486.00;;;;8246560;28;20317;-67
2023/07/24 20:20:11;;;;;;;3.90;3.35;;;;;20.20;95484.00;;;;8247389;28;20262;-67
2023/07/24 20:24:16;;;;;;;7.07;3.63;;;;;20.20;95494.00;;;;8247645;28;20309;-67
2023/07/24 20:28:22;;;;;;;4.93;3.50;;;;;20.20;95493.00;;;;8245732;28;20772;-67
2023/07/24 20:32:26;;;;;;;5.55;3.97;;;;;20.30;95484.00;;;;8239987;28;20203;-67
2023/07/24 20:36:30;;;;;;;7.65;4.07;;;;;20.30;95480.00;;;;8248662;28;20313;-67
2023/07/24 20:40:34;;;;;;;6.85;3.88;;;;;20.40;95488.00;;;;8248732;28;20241;-67